Time;durP1;ratioP1;P1;durP2;ratioP2;P2;SDS_P1;SDS_P2;PMS_P1;PMS_P2;Temp;Humidity;BMP_temperature;BMP_pressure;BME280_temperature;BME280_humidity;BME280_pressure;Samples;Min_cycle;Max_cycle;Signal;HPM_P1;HPM_P2
2021/12/23 00:01:43;;;;;;;47.92;24.30;;;;;;;-3.73;100.00;101387.63;5133518;27;20122;-77
2021/12/23 00:04:12;;;;;;;48.50;23.48;;;;;;;-3.61;100.00;101392.16;5134455;27;20049;-79
2021/12/23 00:06:43;;;;;;;50.47;24.55;;;;;;;-3.75;100.00;101391.94;5133987;27;20489;-79
2021/12/23 00:09:12;;;;;;;53.53;25.17;;;;;;;-3.96;100.00;101384.63;5134214;27;20070;-78
2021/12/23 00:11:40;;;;;;;49.50;23.75;;;;;;;-4.20;100.00;101381.59;5133761;27;20127;-79
2021/12/23 00:14:10;;;;;;;53.45;24.63;;;;;;;-4.27;100.00;101382.34;5133719;27;20096;-78
2021/12/23 00:16:44;;;;;;;47.42;23.35;;;;;;;-4.37;100.00;101376.09;5133179;27;20042;-80
2021/12/23 00:19:34;;;;;;;46.53;22.98;;;;;;;-4.36;100.00;101370.03;5134485;27;20039;-72
2021/12/23 00:24:49;;;;;;;45.08;22.65;;;;;;;-4.21;100.00;101357.28;5135286;27;20061;-71
2021/12/23 00:27:17;;;;;;;44.45;22.55;;;;;;;-4.29;100.00;101358.88;5137404;27;20047;-73
2021/12/23 00:29:45;;;;;;;50.67;23.20;;;;;;;-4.35;100.00;101364.84;5136649;27;20047;-71
2021/12/23 00:32:15;;;;;;;47.58;23.10;;;;;;;-4.44;100.00;101361.19;5137172;27;20046;-71
2021/12/23 00:34:43;;;;;;;46.95;22.73;;;;;;;-4.39;100.00;101357.81;5136676;27;20039;-73
2021/12/23 00:37:12;;;;;;;48.63;22.48;;;;;;;-4.44;100.00;101364.69;5135883;27;20069;-73
2021/12/23 00:39:40;;;;;;;47.15;22.75;;;;;;;-4.50;100.00;101358.50;5136699;27;20087;-73
2021/12/23 00:42:09;;;;;;;42.88;22.52;;;;;;;-4.53;100.00;101359.31;5136999;27;20047;-76
2021/12/23 00:44:45;;;;;;;47.75;22.98;;;;;;;-4.54;100.00;101357.53;5136813;27;20392;-76
2021/12/23 00:47:15;;;;;;;47.17;22.55;;;;;;;-4.52;100.00;101360.19;5137114;27;20039;-76
2021/12/23 00:49:43;;;;;;;45.78;22.63;;;;;;;-4.58;100.00;101357.47;5135190;27;20142;-76
2021/12/23 00:52:11;;;;;;;48.22;23.63;;;;;;;-4.52;100.00;101354.97;5136878;27;20043;-76
2021/12/23 00:54:39;;;;;;;45.65;23.05;;;;;;;-4.41;100.00;101363.88;5136403;27;20046;-76
2021/12/23 00:57:07;;;;;;;54.60;24.40;;;;;;;-4.44;100.00;101359.50;5136452;27;20046;-76
2021/12/23 00:59:37;;;;;;;46.42;23.33;;;;;;;-4.45;100.00;101351.63;5136708;27;20084;-78
2021/12/23 01:02:08;;;;;;;47.50;22.98;;;;;;;-4.47;100.00;101358.53;5136697;27;20049;-76
2021/12/23 01:04:38;;;;;;;46.45;23.25;;;;;;;-4.51;100.00;101361.94;5136786;27;20074;-76
2021/12/23 01:07:06;;;;;;;47.85;23.20;;;;;;;-4.58;100.00;101365.28;5136525;27;20133;-76
2021/12/23 01:09:35;;;;;;;43.22;22.02;;;;;;;-4.40;100.00;101350.00;5136551;27;20071;-76
2021/12/23 01:12:04;;;;;;;48.25;23.48;;;;;;;-4.35;100.00;101353.53;5136113;27;20058;-76
2021/12/23 01:14:41;;;;;;;44.00;22.20;;;;;;;-4.36;100.00;101343.97;5135131;27;20044;-76
2021/12/23 01:17:29;;;;;;;43.17;21.90;;;;;;;-4.52;100.00;101345.44;5136499;27;20035;-76
2021/12/23 01:20:01;;;;;;;44.20;21.75;;;;;;;-4.31;100.00;101344.94;5135913;27;20044;-77
2021/12/23 01:22:30;;;;;;;45.53;22.65;;;;;;;-4.24;100.00;101346.81;5136274;27;20047;-75
2021/12/23 01:24:58;;;;;;;43.25;22.05;;;;;;;-4.24;100.00;101344.22;5136299;27;20476;-77
2021/12/23 01:27:26;;;;;;;45.40;22.33;;;;;;;-4.28;100.00;101345.00;5136093;27;20039;-77
2021/12/23 01:29:54;;;;;;;43.33;21.77;;;;;;;-4.40;100.00;101336.97;5135666;27;20047;-76
2021/12/23 01:32:23;;;;;;;44.20;21.63;;;;;;;-4.30;100.00;101328.47;5135953;27;20039;-76
2021/12/23 01:34:51;;;;;;;45.38;21.10;;;;;;;-4.35;100.00;101328.38;5135723;27;20043;-76
2021/12/23 01:37:20;;;;;;;44.10;22.10;;;;;;;-4.49;100.00;101329.00;5136110;27;20046;-75
2021/12/23 01:39:48;;;;;;;47.30;21.63;;;;;;;-4.56;100.00;101328.00;5135511;27;20040;-75
2021/12/23 01:42:17;;;;;;;42.78;20.88;;;;;;;-4.41;100.00;101328.28;5135883;27;20039;-75
2021/12/23 01:44:45;;;;;;;45.35;21.52;;;;;;;-4.42;100.00;101316.09;5135531;27;20043;-74
2021/12/23 01:47:13;;;;;;;43.10;21.65;;;;;;;-4.44;100.00;101316.91;5136047;27;20496;-74
2021/12/23 01:49:43;;;;;;;43.30;20.75;;;;;;;-4.50;100.00;101322.03;5135748;27;20472;-75
2021/12/23 01:52:12;;;;;;;46.83;21.58;;;;;;;-4.52;100.00;101318.53;5135926;27;20043;-76
2021/12/23 01:54:41;;;;;;;44.10;21.10;;;;;;;-4.58;100.00;101318.41;5135570;27;20087;-75
2021/12/23 01:57:10;;;;;;;44.42;21.23;;;;;;;-4.48;100.00;101305.56;5135474;27;20468;-75
2021/12/23 01:59:38;;;;;;;38.40;19.95;;;;;;;-4.59;100.00;101304.50;5135445;27;20108;-74
2021/12/23 02:02:07;;;;;;;42.42;21.52;;;;;;;-4.61;100.00;101308.81;5135730;27;20545;-75
2021/12/23 02:04:35;;;;;;;38.55;20.05;;;;;;;-4.72;100.00;101306.03;5135394;27;20046;-76
2021/12/23 02:07:06;;;;;;;44.88;21.00;;;;;;;-4.77;100.00;101301.56;5134933;27;20078;-75
2021/12/23 02:09:34;;;;;;;45.88;21.50;;;;;;;-4.79;100.00;101282.44;5135417;27;20465;-75
2021/12/23 02:12:05;;;;;;;38.35;20.20;;;;;;;-4.72;100.00;101290.41;5134832;27;20039;-77
2021/12/23 02:14:35;;;;;;;47.13;21.25;;;;;;;-4.78;100.00;101297.22;5135385;27;20131;-77
2021/12/23 02:17:04;;;;;;;43.75;21.35;;;;;;;-4.76;100.00;101298.09;5134778;27;20096;-77
2021/12/23 02:19:35;;;;;;;43.13;20.60;;;;;;;-4.72;100.00;101293.00;5134826;27;20476;-77
2021/12/23 02:22:05;;;;;;;42.47;21.13;;;;;;;-4.65;100.00;101299.19;5134727;27;20035;-77
2021/12/23 02:24:34;;;;;;;42.63;21.20;;;;;;;-4.67;100.00;101283.53;5135077;27;20058;-78
2021/12/23 02:27:03;;;;;;;40.92;21.13;;;;;;;-4.55;100.00;101295.00;5133583;27;20155;-77
2021/12/23 02:29:34;;;;;;;38.83;20.38;;;;;;;-4.50;100.00;101289.06;5134857;27;20134;-77
2021/12/23 02:32:03;;;;;;;38.97;19.95;;;;;;;-4.58;100.00;101281.94;5134638;27;20058;-78
2021/12/23 02:34:31;;;;;;;45.75;21.33;;;;;;;-4.58;100.00;101274.13;5134868;27;20043;-78
2021/12/23 02:37:01;;;;;;;43.70;21.02;;;;;;;-4.64;100.00;101278.38;5134268;27;20039;-77
2021/12/23 02:39:31;;;;;;;43.05;21.35;;;;;;;-4.65;100.00;101270.53;5134698;27;20066;-75
2021/12/23 02:41:59;;;;;;;41.92;20.77;;;;;;;-4.48;100.00;101263.91;5133909;27;20053;-76
2021/12/23 02:44:27;;;;;;;44.85;21.45;;;;;;;-4.43;100.00;101262.28;5134392;27;20043;-76
2021/12/23 02:46:55;;;;;;;40.00;20.80;;;;;;;-4.53;100.00;101262.97;5134323;27;20057;-76
2021/12/23 02:49:23;;;;;;;42.85;20.83;;;;;;;-4.55;100.00;101262.03;5134610;27;20441;-76
2021/12/23 02:51:52;;;;;;;43.17;20.20;;;;;;;-4.59;100.00;101254.16;5134451;27;20044;-79
2021/12/23 02:54:21;;;;;;;42.40;20.88;;;;;;;-4.57;100.00;101248.13;5134200;27;20043;-74
2021/12/23 02:56:51;;;;;;;45.33;20.73;;;;;;;-4.65;100.00;101253.19;5134174;27;20126;-74
2021/12/23 02:59:20;;;;;;;45.08;22.05;;;;;;;-4.68;100.00;101253.16;5134714;27;20100;-74
2021/12/23 03:01:48;;;;;;;43.25;21.15;;;;;;;-4.78;100.00;101238.22;5134079;27;20456;-74
2021/12/23 03:04:16;;;;;;;50.70;22.42;;;;;;;-4.79;100.00;101246.88;5134353;27;20039;-72
2021/12/23 03:06:45;;;;;;;42.42;21.40;;;;;;;-4.75;100.00;101248.69;5134325;27;20155;-73
2021/12/23 03:09:13;;;;;;;44.92;22.45;;;;;;;-4.81;100.00;101248.59;5134438;27;20373;-72
2021/12/23 03:11:41;;;;;;;44.55;22.25;;;;;;;-4.76;100.00;101236.50;5134273;27;20041;-72
2021/12/23 03:14:14;;;;;;;45.03;22.90;;;;;;;-4.82;100.00;101233.81;5133957;27;20035;-72
2021/12/23 03:16:42;;;;;;;45.90;21.87;;;;;;;-4.83;100.00;101232.03;5134406;27;20369;-72
2021/12/23 03:19:10;;;;;;;49.90;20.75;;;;;;;-4.82;100.00;101240.75;5133560;27;20043;-72
2021/12/23 03:21:39;;;;;;;42.30;20.52;;;;;;;-4.90;100.00;101246.69;5133740;27;20035;-72
2021/12/23 03:24:07;;;;;;;49.88;22.48;;;;;;;-4.93;100.00;101237.94;5133486;27;20559;-72
2021/12/23 03:26:36;;;;;;;46.08;22.30;;;;;;;-4.95;100.00;101239.63;5133931;27;20050;-72
2021/12/23 03:29:07;;;;;;;46.08;21.45;;;;;;;-5.02;100.00;101228.25;5133772;27;20055;-71
2021/12/23 03:31:38;;;;;;;44.67;20.80;;;;;;;-5.01;100.00;101234.34;5133904;27;20126;-71
2021/12/23 03:34:07;;;;;;;42.78;21.42;;;;;;;-5.04;100.00;101224.72;5133562;27;20112;-72
2021/12/23 03:36:36;;;;;;;47.40;21.73;;;;;;;-5.00;100.00;101225.69;5133778;27;20039;-72
2021/12/23 03:39:06;;;;;;;48.40;21.38;;;;;;;-5.04;100.00;101223.84;5133624;27;20050;-72
2021/12/23 03:41:36;;;;;;;47.63;22.10;;;;;;;-4.97;100.00;101220.53;5134172;27;20054;-71
2021/12/23 03:44:05;;;;;;;49.78;22.92;;;;;;;-4.91;100.00;101224.13;5133637;27;20043;-72
2021/12/23 03:46:37;;;;;;;46.38;22.30;;;;;;;-4.97;100.00;101212.72;5133955;27;20047;-75
2021/12/23 03:49:08;;;;;;;46.37;21.03;;;;;;;-5.00;100.00;101215.28;5133847;27;20433;-75
2021/12/23 03:51:38;;;;;;;46.97;22.15;;;;;;;-4.98;100.00;101213.56;5134073;27;20043;-75
2021/12/23 03:54:06;;;;;;;46.00;21.92;;;;;;;-5.03;100.00;101213.47;5134395;27;20047;-77
2021/12/23 03:56:34;;;;;;;43.47;21.23;;;;;;;-5.02;100.00;101220.44;5137566;27;20515;-75
2021/12/23 03:59:03;;;;;;;46.08;21.85;;;;;;;-5.10;100.00;101210.75;5137491;27;20064;-74
2021/12/23 04:01:32;;;;;;;43.22;21.02;;;;;;;-5.03;100.00;101220.41;5137897;27;20063;-74
2021/12/23 04:04:01;;;;;;;48.47;22.02;;;;;;;-5.00;100.00;101215.28;5137444;27;20492;-75
2021/12/23 04:06:30;;;;;;;44.03;21.67;;;;;;;-4.90;100.00;101218.06;5137631;27;20442;-75
2021/12/23 04:08:58;;;;;;;45.40;21.02;;;;;;;-4.91;100.00;101218.03;5136922;27;20496;-71
2021/12/23 04:11:27;;;;;;;41.70;21.40;;;;;;;-4.98;100.00;101210.97;5137802;27;20529;-71
2021/12/23 04:13:55;;;;;;;45.78;21.60;;;;;;;-4.85;100.00;101210.31;5137292;27;20054;-73
2021/12/23 04:16:24;;;;;;;45.20;22.10;;;;;;;-4.87;100.00;101212.03;5137247;27;20043;-73
2021/12/23 04:18:54;;;;;;;49.08;23.20;;;;;;;-4.84;100.00;101200.78;5136872;27;20062;-72
2021/12/23 04:21:22;;;;;;;47.45;23.00;;;;;;;-4.98;100.00;101203.16;5137553;27;20092;-73
2021/12/23 04:23:52;;;;;;;45.97;22.67;;;;;;;-5.05;100.00;101201.28;5137484;27;20047;-73
2021/12/23 04:26:20;;;;;;;49.50;23.40;;;;;;;-5.04;100.00;101196.09;5137376;27;20054;-73
2021/12/23 04:28:48;;;;;;;45.28;22.27;;;;;;;-5.02;100.00;101191.81;5137007;27;20472;-73
2021/12/23 04:31:19;;;;;;;46.40;22.58;;;;;;;-5.10;100.00;101192.53;5136097;27;20544;-73
2021/12/23 04:33:50;;;;;;;43.20;20.70;;;;;;;-5.13;100.00;101197.66;5137336;27;20071;-73
2021/12/23 04:36:19;;;;;;;45.40;21.00;;;;;;;-5.18;100.00;101200.19;5137066;27;20047;-72
2021/12/23 04:38:48;;;;;;;44.17;21.50;;;;;;;-5.21;100.00;101188.00;5137088;27;20039;-73
2021/12/23 04:41:17;;;;;;;44.45;21.58;;;;;;;-5.22;100.00;101191.44;5136556;27;20078;-74
2021/12/23 04:43:46;;;;;;;47.03;22.98;;;;;;;-5.29;100.00;101189.59;5137091;27;20047;-74
2021/12/23 04:46:17;;;;;;;50.20;23.50;;;;;;;-5.27;100.00;101195.69;5136403;27;20049;-74
2021/12/23 04:48:45;;;;;;;51.90;23.98;;;;;;;-5.27;100.00;101200.00;5137027;27;20078;-74
2021/12/23 04:51:15;;;;;;;51.08;23.05;;;;;;;-5.22;100.00;101187.97;5136651;27;20392;-74
2021/12/23 04:53:44;;;;;;;48.80;25.13;;;;;;;-5.29;100.00;101184.38;5136548;27;20100;-74
2021/12/23 04:56:19;;;;;;;60.67;27.10;;;;;;;-5.13;100.00;101188.13;5136446;27;20130;-75
2021/12/23 04:58:48;;;;;;;63.08;26.55;;;;;;;-5.08;100.00;101185.63;5136577;27;20043;-75
2021/12/23 05:01:20;;;;;;;60.30;27.77;;;;;;;-4.88;100.00;101184.25;5136038;27;20096;-74
2021/12/23 05:03:49;;;;;;;62.85;29.17;;;;;;;-4.96;100.00;101180.63;5136891;27;20071;-74
2021/12/23 05:06:18;;;;;;;63.28;28.90;;;;;;;-4.87;100.00;101178.19;5135776;27;20051;-73
2021/12/23 05:08:47;;;;;;;59.15;26.88;;;;;;;-4.98;100.00;101184.94;5136187;27;20054;-74
2021/12/23 05:11:16;;;;;;;64.15;28.10;;;;;;;-4.97;100.00;101179.75;5136348;27;20065;-74
2021/12/23 05:13:48;;;;;;;63.10;27.52;;;;;;;-5.01;100.00;101177.09;5136101;27;20488;-74
2021/12/23 05:16:16;;;;;;;59.80;27.63;;;;;;;-5.01;100.00;101182.28;5136150;27;20392;-77
2021/12/23 05:18:45;;;;;;;66.03;28.23;;;;;;;-4.89;100.00;101182.50;5136316;27;20050;-77
2021/12/23 05:21:13;;;;;;;59.10;28.00;;;;;;;-4.87;100.00;101178.19;5135991;27;20043;-77
2021/12/23 05:23:42;;;;;;;64.20;28.70;;;;;;;-4.83;100.00;101177.38;5135793;27;20062;-77
2021/12/23 05:26:10;;;;;;;55.78;25.67;;;;;;;-4.79;100.00;101170.53;5135936;27;20046;-77
2021/12/23 05:28:39;;;;;;;53.30;27.02;;;;;;;-4.71;100.00;101153.31;5136199;27;20388;-77
2021/12/23 05:31:09;;;;;;;62.75;27.48;;;;;;;-4.73;100.00;101161.09;5135488;27;20050;-77
2021/12/23 05:33:38;;;;;;;54.47;25.83;;;;;;;-4.73;100.00;101161.09;5136179;27;20043;-76
2021/12/23 05:36:07;;;;;;;57.55;27.88;;;;;;;-4.68;100.00;101156.81;5135919;27;20130;-78
2021/12/23 05:38:35;;;;;;;53.03;24.85;;;;;;;-4.61;100.00;101174.31;5136287;27;20122;-77
2021/12/23 05:41:04;;;;;;;56.75;24.67;;;;;;;-4.51;100.00;101167.50;5135609;27;20125;-78
2021/12/23 05:43:32;;;;;;;59.58;27.55;;;;;;;-4.54;100.00;101171.78;5136360;27;20396;-78
2021/12/23 05:46:01;;;;;;;51.88;26.17;;;;;;;-4.54;100.00;101175.25;5135887;27;20047;-76
2021/12/23 05:48:31;;;;;;;53.15;23.88;;;;;;;-4.41;100.00;101191.97;5135784;27;20040;-76
2021/12/23 05:50:59;;;;;;;50.90;22.98;;;;;;;-4.33;100.00;101188.63;5135421;27;20537;-75
2021/12/23 05:53:27;;;;;;;52.20;25.67;;;;;;;-4.32;100.00;101181.69;5134714;27;20051;-74
2021/12/23 05:55:56;;;;;;;54.17;26.48;;;;;;;-4.22;100.00;101194.00;5135682;27;20039;-74
2021/12/23 05:58:24;;;;;;;51.38;25.45;;;;;;;-4.21;100.00;101187.94;5135303;27;20097;-75
2021/12/23 06:00:53;;;;;;;54.55;24.00;;;;;;;-4.19;100.00;101173.19;5135319;27;20061;-75
2021/12/23 06:03:21;;;;;;;55.45;24.27;;;;;;;-4.07;100.00;101177.69;5134162;27;20511;-78
2021/12/23 06:05:51;;;;;;;46.20;23.75;;;;;;;-4.07;100.00;101170.75;5135637;27;20045;-78
2021/12/23 06:08:19;;;;;;;49.83;24.80;;;;;;;-3.93;100.00;101170.06;5135548;27;20067;-79
2021/12/23 06:10:48;;;;;;;52.50;24.70;;;;;;;-3.89;100.00;101171.84;5135221;27;20047;-72
2021/12/23 06:13:16;;;;;;;42.42;21.73;;;;;;;-3.77;100.00;101154.63;5134899;27;20039;-73
2021/12/23 06:15:47;;;;;;;43.42;20.70;;;;;;;-3.61;100.00;101152.22;5135348;27;20092;-75
2021/12/23 06:18:15;;;;;;;41.28;19.63;;;;;;;-3.51;100.00;101157.56;5134156;27;20053;-75
2021/12/23 06:20:43;;;;;;;38.05;18.50;;;;;;;-3.60;100.00;101154.84;5135022;27;20050;-75
2021/12/23 06:23:13;;;;;;;32.72;17.45;;;;;;;-3.46;100.00;101155.91;5134289;27;20452;-74
2021/12/23 06:25:42;;;;;;;38.53;19.20;;;;;;;-3.41;100.00;101149.84;5135165;27;20036;-74
2021/12/23 06:28:12;;;;;;;36.83;18.67;;;;;;;-3.41;100.00;101153.31;5134955;27;20039;-74
2021/12/23 06:30:41;;;;;;;37.78;18.52;;;;;;;-3.49;100.00;101153.22;5134901;27;20442;-73
2021/12/23 06:33:11;;;;;;;35.75;18.52;;;;;;;-3.63;100.00;101159.16;5134616;27;20437;-74
2021/12/23 06:35:40;;;;;;;36.50;18.10;;;;;;;-3.67;100.00;101153.00;5134641;27;20077;-73
2021/12/23 06:38:10;;;;;;;37.53;18.15;;;;;;;-3.59;100.00;101159.19;5134472;27;20475;-74
2021/12/23 06:40:41;;;;;;;40.67;19.45;;;;;;;-3.59;100.00;101164.41;5134613;27;20552;-75
2021/12/23 06:43:09;;;;;;;44.40;20.08;;;;;;;-3.52;100.00;101157.53;5134153;27;20511;-75
2021/12/23 06:45:38;;;;;;;42.88;19.50;;;;;;;-3.52;100.00;101161.03;5134785;27;20073;-75
2021/12/23 06:48:06;;;;;;;42.33;20.52;;;;;;;-3.39;100.00;101158.56;5134085;27;20123;-75
2021/12/23 06:50:35;;;;;;;44.15;19.95;;;;;;;-3.47;100.00;101164.59;5134630;27;20049;-75
2021/12/23 06:53:04;;;;;;;40.50;19.40;;;;;;;-3.47;100.00;101156.75;5134221;27;20464;-75
2021/12/23 06:55:32;;;;;;;41.58;20.08;;;;;;;-3.37;100.00;101156.84;5134341;27;20043;-72
2021/12/23 06:58:02;;;;;;;42.97;19.75;;;;;;;-3.47;100.00;101156.75;5134144;27;20055;-71
2021/12/23 07:00:34;;;;;;;43.47;20.05;;;;;;;-3.46;100.00;101152.41;5134061;27;20036;-72
2021/12/23 07:03:03;;;;;;;37.20;18.45;;;;;;;-3.20;100.00;101161.38;5134274;27;20039;-73
2021/12/23 07:05:32;;;;;;;41.55;20.02;;;;;;;-3.42;100.00;101168.97;5134214;27;20043;-73
2021/12/23 07:08:08;;;;;;;40.67;19.02;;;;;;;-3.24;100.00;101158.72;5133189;27;20484;-73
2021/12/23 07:10:38;;;;;;;36.60;18.55;;;;;;;-3.31;100.00;101152.56;5134389;27;20043;-73
2021/12/23 07:13:08;;;;;;;40.60;19.58;;;;;;;-3.13;100.00;101159.69;5133698;27;20042;-73
2021/12/23 07:15:36;;;;;;;41.70;19.88;;;;;;;-2.99;100.00;101150.28;5134245;27;20045;-72
2021/12/23 07:18:04;;;;;;;40.28;19.30;;;;;;;-3.07;100.00;101149.34;5133862;27;20043;-72
2021/12/23 07:20:33;;;;;;;39.33;20.15;;;;;;;-3.01;100.00;101149.38;5133836;27;20092;-73
2021/12/23 07:23:01;;;;;;;37.80;18.83;;;;;;;-3.13;100.00;101149.25;5133446;27;20039;-73
2021/12/23 07:25:30;;;;;;;42.58;19.90;;;;;;;-3.15;100.00;101152.72;5134132;27;20045;-74
2021/12/23 07:27:58;;;;;;;40.38;18.38;;;;;;;-2.97;100.00;101152.91;5135392;27;20043;-73
2021/12/23 07:30:28;;;;;;;38.38;17.80;;;;;;;-2.89;100.00;101141.69;5140799;27;20396;-73
2021/12/23 07:32:56;;;;;;;37.13;18.27;;;;;;;-2.78;100.00;101148.72;5141108;27;20050;-74
2021/12/23 07:35:25;;;;;;;37.05;18.23;;;;;;;-2.79;100.00;101141.75;5140453;27;20039;-75
2021/12/23 07:37:53;;;;;;;44.25;18.85;;;;;;;-2.85;100.00;101144.31;5140621;27;20453;-75
2021/12/23 07:40:21;;;;;;;41.25;19.92;;;;;;;-2.77;100.00;101153.06;5140428;27;20047;-75
2021/12/23 07:42:56;;;;;;;34.78;17.73;;;;;;;-2.77;100.00;101158.31;5140649;27;20093;-75
2021/12/23 07:45:29;;;;;;;42.72;18.20;;;;;;;-2.79;100.00;101152.19;5140428;27;20137;-79
2021/12/23 07:47:58;;;;;;;37.50;17.05;;;;;;;-2.65;100.00;101150.56;5141896;27;20491;-78
2021/12/23 07:50:26;;;;;;;36.85;17.50;;;;;;;-2.52;100.00;101141.94;5145677;27;20047;-71
2021/12/23 07:52:55;;;;;;;42.53;19.30;;;;;;;-2.71;100.00;101135.69;5140749;27;20441;-73
2021/12/23 07:55:23;;;;;;;38.95;17.27;;;;;;;-2.71;100.00;101134.81;5140355;27;20080;-76
2021/12/23 07:57:51;;;;;;;34.63;18.20;;;;;;;-2.78;100.00;101128.69;5140286;27;20476;-74
2021/12/23 08:00:21;;;;;;;39.40;17.35;;;;;;;-2.46;100.00;101120.22;5140192;27;20434;-71
2021/12/23 08:02:50;;;;;;;41.28;17.90;;;;;;;-2.43;100.00;101118.50;5140627;27;20031;-74
2021/12/23 08:05:19;;;;;;;36.78;19.48;;;;;;;-2.45;100.00;101106.28;5140746;27;20384;-71
2021/12/23 08:07:48;;;;;;;35.60;16.77;;;;;;;-2.33;100.00;101103.75;5140637;27;20397;-72
2021/12/23 08:10:16;;;;;;;36.03;18.00;;;;;;;-2.48;100.00;101099.31;5139931;27;20093;-71
2021/12/23 08:12:44;;;;;;;36.47;17.50;;;;;;;-2.51;100.00;101107.16;5140539;27;20070;-73
2021/12/23 08:15:13;;;;;;;33.55;17.20;;;;;;;-2.37;100.00;101102.88;5140070;27;20043;-72
2021/12/23 08:17:42;;;;;;;33.97;15.75;;;;;;;-2.41;100.00;101100.25;5140233;27;20039;-71
2021/12/23 08:20:13;;;;;;;31.45;16.08;;;;;;;-2.39;100.00;101102.00;5139976;27;20125;-73
2021/12/23 08:22:42;;;;;;;27.20;15.10;;;;;;;-2.40;100.00;101092.41;5140684;27;20035;-72
2021/12/23 08:25:11;;;;;;;29.23;14.57;;;;;;;-2.43;100.00;101099.34;5140370;27;20133;-75
2021/12/23 08:27:40;;;;;;;32.13;14.52;;;;;;;-2.48;100.00;101096.72;5139061;27;20031;-74
2021/12/23 08:30:12;;;;;;;30.55;14.55;;;;;;;-2.56;100.00;101093.16;5137719;27;20134;-74
2021/12/23 08:32:42;;;;;;;28.88;13.70;;;;;;;-2.41;100.00;101092.41;5136916;27;20483;-73
2021/12/23 08:35:12;;;;;;;29.25;15.45;;;;;;;-2.43;100.00;101089.75;5139172;27;20135;-75
2021/12/23 08:37:46;;;;;;;33.65;15.85;;;;;;;-2.34;100.00;101094.16;5141118;27;20127;-73
2021/12/23 08:40:17;;;;;;;28.80;13.73;;;;;;;-2.12;100.00;101095.19;5137176;27;20058;-74
2021/12/23 08:42:46;;;;;;;29.40;13.93;;;;;;;-2.08;100.00;101096.91;5134228;27;20058;-72
2021/12/23 08:45:15;;;;;;;27.27;13.63;;;;;;;-2.07;100.00;101096.06;5135708;27;20058;-72
2021/12/23 08:47:45;;;;;;;28.95;13.48;;;;;;;-2.13;100.00;101093.41;5136325;27;20047;-72
2021/12/23 08:50:16;;;;;;;27.33;13.48;;;;;;;-1.99;100.00;101083.88;5135320;27;20042;-71
2021/12/23 08:52:45;;;;;;;27.30;14.32;;;;;;;-2.08;100.00;101089.06;5135566;27;20082;-72
2021/12/23 08:55:15;;;;;;;29.77;14.18;;;;;;;-1.84;100.00;101086.53;5135797;27;20047;-71
2021/12/23 08:57:44;;;;;;;28.35;14.65;;;;;;;-1.86;100.00;101093.53;5134625;27;20051;-72
2021/12/23 09:00:16;;;;;;;26.27;12.63;;;;;;;-1.68;100.00;101097.06;5134475;27;20373;-76
2021/12/23 09:02:46;;;;;;;29.55;13.52;;;;;;;-1.77;100.00;101087.44;5135237;27;20047;-77
2021/12/23 09:05:19;;;;;;;24.13;12.35;;;;;;;-1.72;100.00;101088.34;5135793;27;20047;-75
2021/12/23 09:07:49;;;;;;;26.95;12.48;;;;;;;-1.69;100.00;101090.97;5135483;27;20072;-76
2021/12/23 09:10:19;;;;;;;24.58;12.65;;;;;;;-1.78;99.30;101086.56;5135724;27;20044;-72
2021/12/23 09:12:47;;;;;;;25.02;12.35;;;;;;;-1.63;100.00;101084.91;5135151;27;20089;-72
2021/12/23 09:15:16;;;;;;;24.33;12.50;;;;;;;-1.51;99.06;101077.94;5136061;27;20078;-71
2021/12/23 09:17:45;;;;;;;25.20;13.00;;;;;;;-1.29;97.22;101060.53;5135850;27;20066;-70
2021/12/23 09:20:17;;;;;;;24.85;12.05;;;;;;;-1.19;96.11;101046.56;5136109;27;20506;-73
2021/12/23 09:22:51;;;;;;;24.20;12.60;;;;;;;-1.10;95.53;101032.59;5136362;27;20396;-71
2021/12/23 09:25:24;;;;;;;26.13;12.73;;;;;;;-1.09;95.58;101033.47;5136314;27;20051;-70
2021/12/23 09:28:19;;;;;;;30.00;12.98;;;;;;;-1.27;96.27;101045.69;5136392;27;20043;-71
2021/12/23 09:33:33;;;;;;;26.10;12.68;;;;;;;-1.34;96.07;101027.38;5136101;27;20476;-70
2021/12/23 09:36:03;;;;;;;23.50;11.90;;;;;;;-1.46;97.17;101020.38;5136063;27;20039;-70
2021/12/23 09:38:31;;;;;;;26.98;12.77;;;;;;;-1.45;96.99;101015.16;5134491;27;20047;-72
2021/12/23 09:41:02;;;;;;;26.70;12.63;;;;;;;-1.31;96.48;101023.00;5135959;27;20084;-71
2021/12/23 09:43:32;;;;;;;23.63;11.40;;;;;;;-1.20;96.38;101008.16;5135737;27;20078;-71
2021/12/23 09:46:01;;;;;;;27.13;12.63;;;;;;;-1.15;95.46;101000.34;5134479;27;20054;-74
2021/12/23 09:48:32;;;;;;;22.98;11.20;;;;;;;-0.97;93.11;101004.66;5132169;27;20099;-74
2021/12/23 09:51:05;;;;;;;23.55;11.32;;;;;;;-1.11;94.30;101002.06;5134804;27;20067;-70
2021/12/23 09:53:36;;;;;;;22.92;10.98;;;;;;;-1.08;92.36;100995.94;5133695;27;20040;-70
2021/12/23 09:56:06;;;;;;;24.55;11.10;;;;;;;-1.19;93.70;100996.81;5134624;27;20050;-72
2021/12/23 09:58:36;;;;;;;21.95;11.65;;;;;;;-1.11;92.36;100996.81;5133659;27;20081;-71
2021/12/23 10:01:06;;;;;;;21.23;10.55;;;;;;;-0.96;91.39;101001.19;5133254;27;20055;-69
2021/12/23 10:03:37;;;;;;;20.58;10.38;;;;;;;-1.08;91.82;100990.72;5133763;27;20047;-72
2021/12/23 10:06:07;;;;;;;19.23;10.18;;;;;;;-1.11;91.60;100991.59;5134352;27;20092;-72
2021/12/23 10:08:39;;;;;;;22.60;10.60;;;;;;;-1.09;90.87;100999.44;5134495;27;20078;-69
2021/12/23 10:11:16;;;;;;;21.73;11.07;;;;;;;-1.07;91.24;100987.22;5134685;27;20541;-73
2021/12/23 10:31:09;;;;;;;20.77;10.10;;;;;;;-0.40;88.05;100963.47;5111643;27;20061;-69
2021/12/23 10:33:48;;;;;;;20.35;10.38;;;;;;;-0.54;88.24;100957.41;5134231;27;20035;-68
2021/12/23 10:39:23;;;;;;;19.52;10.05;;;;;;;-0.40;87.33;100929.38;5134689;27;20039;-67
2021/12/23 10:41:52;;;;;;;18.35;9.27;;;;;;;-0.40;87.18;100930.25;5134254;27;20039;-66
2021/12/23 10:44:29;;;;;;;22.20;11.20;;;;;;;-0.45;87.54;100918.94;5134860;27;20404;-68
2021/12/23 10:46:59;;;;;;;18.42;9.75;;;;;;;-0.30;86.40;100912.72;5135029;27;20074;-68
2021/12/23 10:49:38;;;;;;;19.50;10.13;;;;;;;-0.22;86.36;100912.69;5134487;27;20043;-68
2021/12/23 10:52:14;;;;;;;20.65;10.18;;;;;;;-0.34;87.94;100905.78;5134990;27;20046;-68
2021/12/23 11:00:27;;;;;;;21.13;9.73;;;;;;;-0.21;85.85;100885.59;5134329;27;20046;-68
2021/12/23 11:03:10;;;;;;;21.42;9.77;;;;;;;-0.20;84.59;100889.94;5133509;27;20498;-68
2021/12/23 11:05:46;;;;;;;19.93;8.77;;;;;;;-0.28;85.23;100881.28;5133616;27;20540;-68
2021/12/23 11:08:26;;;;;;;21.98;9.35;;;;;;;-0.33;86.04;100873.44;5134140;27;20491;-68
2021/12/23 11:11:30;;;;;;;18.30;9.98;;;;;;;-0.21;85.93;100869.84;5133567;27;20150;-68
2021/12/23 11:28:57;;;;;;;18.25;9.23;;;;;;;0.04;85.94;100810.25;5133875;28;20035;-67
2021/12/23 11:39:53;;;;;;;19.63;9.68;;;;;;;0.14;83.97;100790.91;5130352;27;20055;-67
2021/12/23 11:42:31;;;;;;;19.83;9.10;;;;;;;0.19;83.71;100783.84;5134198;27;20429;-67
2021/12/23 11:45:01;;;;;;;19.17;8.70;;;;;;;0.32;81.24;100780.25;5134246;28;20035;-68
2021/12/23 11:47:31;;;;;;;16.90;8.15;;;;;;;0.49;80.63;100772.22;5134044;27;20046;-67
2021/12/23 11:50:00;;;;;;;14.60;7.75;;;;;;;0.56;76.52;100764.22;5133659;27;20035;-68
2021/12/23 11:52:30;;;;;;;16.92;7.80;;;;;;;0.49;70.65;100765.22;5134008;27;20065;-67
2021/12/23 11:54:58;;;;;;;12.50;6.38;;;;;;;0.45;69.90;100755.59;5133830;27;20081;-66
2021/12/23 11:57:31;;;;;;;13.73;6.75;;;;;;;0.59;69.72;100763.34;5133700;27;20035;-67
2021/12/23 12:00:13;;;;;;;13.18;7.03;;;;;;;0.63;69.96;100753.66;5133652;27;20373;-68
2021/12/23 12:02:42;;;;;;;12.65;5.90;;;;;;;0.64;68.50;100756.28;5132521;28;20047;-68
2021/12/23 12:05:16;;;;;;;12.50;5.90;;;;;;;0.61;68.32;100750.19;5134193;27;20051;-67
2021/12/23 12:07:46;;;;;;;11.95;5.90;;;;;;;0.55;69.14;100746.75;5133843;27;20112;-68
2021/12/23 12:10:20;;;;;;;11.05;5.93;;;;;;;0.50;68.68;100735.44;5133945;27;20042;-68
2021/12/23 12:12:59;;;;;;;15.35;6.88;;;;;;;0.60;68.47;100733.56;5133378;27;20043;-68